sensor_id;sensor_type;location;lat;lon;timestamp;temperature;humidity
47514;DHT22;33951;51.988;5.910;2023-08-24T04:01:54;19.90;99.90
47514;DHT22;33951;51.988;5.910;2023-08-24T04:10:27;19.70;99.90
47514;DHT22;33951;51.988;5.910;2023-08-24T04:16:07;19.70;99.90
47514;DHT22;33951;51.988;5.910;2023-08-24T04:19:07;19.70;99.90
47514;DHT22;33951;51.988;5.910;2023-08-24T04:22:11;19.70;99.90
47514;DHT22;33951;51.988;5.910;2023-08-24T04:25:02;19.70;99.90
47514;DHT22;33951;51.988;5.910;2023-08-24T04:27:39;19.60;99.90
47514;DHT22;33951;51.988;5.910;2023-08-24T04:30:07;19.60;99.90
47514;DHT22;33951;51.988;5.910;2023-08-24T04:32:59;19.60;99.90
47514;DHT22;33951;51.988;5.910;2023-08-24T04:35:36;19.50;99.90
47514;DHT22;33951;51.988;5.910;2023-08-24T04:38:38;19.40;99.90
47514;DHT22;33951;51.988;5.910;2023-08-24T04:44:42;19.50;99.90
47514;DHT22;33951;51.988;5.910;2023-08-24T04:50:43;19.50;99.90
47514;DHT22;33951;51.988;5.910;2023-08-24T04:53:42;19.50;99.90
47514;DHT22;33951;51.988;5.910;2023-08-24T04:56:39;19.40;99.90
47514;DHT22;33951;51.988;5.910;2023-08-24T04:59:20;19.50;99.90
47514;DHT22;33951;51.988;5.910;2023-08-24T05:02:19;19.50;99.90
47514;DHT22;33951;51.988;5.910;2023-08-24T05:05:16;19.30;99.90
47514;DHT22;33951;51.988;5.910;2023-08-24T05:08:17;19.20;99.90
47514;DHT22;33951;51.988;5.910;2023-08-24T05:13:26;19.40;99.90
47514;DHT22;33951;51.988;5.910;2023-08-24T05:16:23;19.40;99.90
47514;DHT22;33951;51.988;5.910;2023-08-24T05:25:38;19.40;99.90
47514;DHT22;33951;51.988;5.910;2023-08-24T05:28:07;19.40;99.90
47514;DHT22;33951;51.988;5.910;2023-08-24T05:56:25;19.60;99.90
47514;DHT22;33951;51.988;5.910;2023-08-24T06:16:31;19.60;99.90
47514;DHT22;33951;51.988;5.910;2023-08-24T06:29:48;19.70;99.90
47514;DHT22;33951;51.988;5.910;2023-08-24T06:32:43;19.80;99.90
47514;DHT22;33951;51.988;5.910;2023-08-24T07:00:34;20.50;99.90
47514;DHT22;33951;51.988;5.910;2023-08-24T07:28:04;21.00;99.90
47514;DHT22;33951;51.988;5.910;2023-08-24T10:02:39;27.60;99.90
47514;DHT22;33951;51.988;5.910;2023-08-24T10:41:59;28.00;99.90
47514;DHT22;33951;51.988;5.910;2023-08-24T10:51:29;28.00;99.90
47514;DHT22;33951;51.988;5.910;2023-08-24T10:54:00;27.90;99.90
47514;DHT22;33951;51.988;5.910;2023-08-24T10:56:36;27.90;99.90
47514;DHT22;33951;51.988;5.910;2023-08-24T10:59:17;27.80;99.90
47514;DHT22;33951;51.988;5.910;2023-08-24T11:04:38;27.60;99.90
47514;DHT22;33951;51.988;5.910;2023-08-24T11:07:04;27.50;99.90
47514;DHT22;33951;51.988;5.910;2023-08-24T11:09:46;27.50;99.90
47514;DHT22;33951;51.988;5.910;2023-08-24T11:12:12;27.50;99.90
47514;DHT22;33951;51.988;5.910;2023-08-24T11:14:49;27.50;99.90
47514;DHT22;33951;51.988;5.910;2023-08-24T11:17:21;27.30;99.90
47514;DHT22;33951;51.988;5.910;2023-08-24T11:19:52;27.00;99.90
47514;DHT22;33951;51.988;5.910;2023-08-24T11:22:19;26.80;99.90
47514;DHT22;33951;51.988;5.910;2023-08-24T11:24:49;26.80;99.90
47514;DHT22;33951;51.988;5.910;2023-08-24T11:27:14;26.80;99.90
47514;DHT22;33951;51.988;5.910;2023-08-24T11:29:44;26.80;99.90
47514;DHT22;33951;51.988;5.910;2023-08-24T11:32:10;26.80;99.90
47514;DHT22;33951;51.988;5.910;2023-08-24T11:34:35;26.80;99.90
47514;DHT22;33951;51.988;5.910;2023-08-24T11:37:02;26.80;99.90
47514;DHT22;33951;51.988;5.910;2023-08-24T11:39:30;27.00;99.90
47514;DHT22;33951;51.988;5.910;2023-08-24T11:42:04;27.00;99.90
47514;DHT22;33951;51.988;5.910;2023-08-24T11:44:44;27.10;99.90
47514;DHT22;33951;51.988;5.910;2023-08-24T11:47:11;27.40;99.90
47514;DHT22;33951;51.988;5.910;2023-08-24T11:49:40;27.50;99.90
47514;DHT22;33951;51.988;5.910;2023-08-24T11:52:06;27.40;99.90
47514;DHT22;33951;51.988;5.910;2023-08-24T11:54:32;27.30;99.90
47514;DHT22;33951;51.988;5.910;2023-08-24T11:56:58;27.40;99.90
47514;DHT22;33951;51.988;5.910;2023-08-24T11:59:24;27.50;99.90
47514;DHT22;33951;51.988;5.910;2023-08-24T12:01:51;27.40;99.90
47514;DHT22;33951;51.988;5.910;2023-08-24T12:04:18;27.50;99.90
47514;DHT22;33951;51.988;5.910;2023-08-24T12:06:44;27.40;99.90
47514;DHT22;33951;51.988;5.910;2023-08-24T12:09:10;27.50;99.90
47514;DHT22;33951;51.988;5.910;2023-08-24T12:11:36;27.50;99.90
47514;DHT22;33951;51.988;5.910;2023-08-24T12:14:02;27.60;99.90
47514;DHT22;33951;51.988;5.910;2023-08-24T12:16:32;27.60;99.90
47514;DHT22;33951;51.988;5.910;2023-08-24T12:18:59;27.60;99.90
47514;DHT22;33951;51.988;5.910;2023-08-24T12:21:28;27.70;99.90
47514;DHT22;33951;51.988;5.910;2023-08-24T12:26:27;27.80;99.90
47514;DHT22;33951;51.988;5.910;2023-08-24T12:29:04;28.00;99.90
47514;DHT22;33951;51.988;5.910;2023-08-24T12:31:31;28.00;99.90
47514;DHT22;33951;51.988;5.910;2023-08-24T12:34:04;28.10;99.90
47514;DHT22;33951;51.988;5.910;2023-08-24T12:36:36;28.10;99.90
47514;DHT22;33951;51.988;5.910;2023-08-24T12:39:02;28.00;99.90
47514;DHT22;33951;51.988;5.910;2023-08-24T12:41:33;28.10;99.90
47514;DHT22;33951;51.988;5.910;2023-08-24T12:43:59;28.10;99.90
47514;DHT22;33951;51.988;5.910;2023-08-24T12:46:27;28.00;99.90
47514;DHT22;33951;51.988;5.910;2023-08-24T12:48:53;28.00;99.90
47514;DHT22;33951;51.988;5.910;2023-08-24T12:51:19;28.00;99.90
47514;DHT22;33951;51.988;5.910;2023-08-24T12:53:45;28.00;99.90
47514;DHT22;33951;51.988;5.910;2023-08-24T12:56:10;27.90;99.90
47514;DHT22;33951;51.988;5.910;2023-08-24T12:58:38;27.80;99.90
47514;DHT22;33951;51.988;5.910;2023-08-24T13:01:04;27.90;99.90
47514;DHT22;33951;51.988;5.910;2023-08-24T13:03:33;28.00;99.90
47514;DHT22;33951;51.988;5.910;2023-08-24T13:05:59;27.90;99.90
47514;DHT22;33951;51.988;5.910;2023-08-24T13:08:24;27.90;99.90
47514;DHT22;33951;51.988;5.910;2023-08-24T13:10:51;27.80;99.90
47514;DHT22;33951;51.988;5.910;2023-08-24T13:13:17;27.90;99.90
47514;DHT22;33951;51.988;5.910;2023-08-24T13:15:47;27.80;99.90
47514;DHT22;33951;51.988;5.910;2023-08-24T13:18:13;27.80;99.90
47514;DHT22;33951;51.988;5.910;2023-08-24T13:20:39;27.90;99.90
47514;DHT22;33951;51.988;5.910;2023-08-24T13:23:04;27.90;99.90
47514;DHT22;33951;51.988;5.910;2023-08-24T13:25:33;27.90;99.90
47514;DHT22;33951;51.988;5.910;2023-08-24T13:27:59;27.80;99.90
47514;DHT22;33951;51.988;5.910;2023-08-24T13:30:25;27.80;99.90
47514;DHT22;33951;51.988;5.910;2023-08-24T13:32:54;27.80;99.90
47514;DHT22;33951;51.988;5.910;2023-08-24T13:35:20;27.90;99.90
47514;DHT22;33951;51.988;5.910;2023-08-24T13:37:48;27.70;99.90
47514;DHT22;33951;51.988;5.910;2023-08-24T13:40:14;27.80;99.90
47514;DHT22;33951;51.988;5.910;2023-08-24T13:42:39;27.70;99.90
47514;DHT22;33951;51.988;5.910;2023-08-24T13:45:05;27.70;99.90
47514;DHT22;33951;51.988;5.910;2023-08-24T13:47:31;27.30;99.90
47514;DHT22;33951;51.988;5.910;2023-08-24T13:49:59;27.20;99.90
47514;DHT22;33951;51.988;5.910;2023-08-24T13:52:25;27.10;99.90
47514;DHT22;33951;51.988;5.910;2023-08-24T13:57:38;27.20;99.90
47514;DHT22;33951;51.988;5.910;2023-08-24T14:00:04;27.20;99.90
47514;DHT22;33951;51.988;5.910;2023-08-24T14:02:30;26.90;99.90
47514;DHT22;33951;51.988;5.910;2023-08-24T14:04:56;26.80;99.90
47514;DHT22;33951;51.988;5.910;2023-08-24T14:07:26;26.50;99.90
47514;DHT22;33951;51.988;5.910;2023-08-24T14:09:55;26.30;99.90
47514;DHT22;33951;51.988;5.910;2023-08-24T14:12:23;26.30;99.90
47514;DHT22;33951;51.988;5.910;2023-08-24T14:14:49;26.10;99.90
47514;DHT22;33951;51.988;5.910;2023-08-24T14:17:15;26.10;99.90
47514;DHT22;33951;51.988;5.910;2023-08-24T14:19:40;26.10;99.90
47514;DHT22;33951;51.988;5.910;2023-08-24T14:22:06;25.90;99.90
47514;DHT22;33951;51.988;5.910;2023-08-24T14:24:35;25.80;99.90
47514;DHT22;33951;51.988;5.910;2023-08-24T14:27:01;25.70;99.90
47514;DHT22;33951;51.988;5.910;2023-08-24T14:29:29;25.60;99.90
47514;DHT22;33951;51.988;5.910;2023-08-24T14:32:04;25.50;99.90
47514;DHT22;33951;51.988;5.910;2023-08-24T14:38:18;25.30;99.90
47514;DHT22;33951;51.988;5.910;2023-08-24T14:41:07;25.30;99.90
47514;DHT22;33951;51.988;5.910;2023-08-24T14:46:31;25.30;99.90
47514;DHT22;33951;51.988;5.910;2023-08-24T14:49:17;25.30;99.90
47514;DHT22;33951;51.988;5.910;2023-08-24T14:52:10;25.10;99.90
47514;DHT22;33951;51.988;5.910;2023-08-24T14:54:59;25.10;99.90
47514;DHT22;33951;51.988;5.910;2023-08-24T14:58:05;25.00;99.90
47514;DHT22;33951;51.988;5.910;2023-08-24T15:00:51;25.20;99.90
47514;DHT22;33951;51.988;5.910;2023-08-24T15:06:28;25.20;99.90
47514;DHT22;33951;51.988;5.910;2023-08-24T15:21:05;25.30;99.90
47514;DHT22;33951;51.988;5.910;2023-08-24T15:23:53;25.20;99.90
47514;DHT22;33951;51.988;5.910;2023-08-24T15:26:47;25.20;99.90
47514;DHT22;33951;51.988;5.910;2023-08-24T15:32:28;25.20;99.90
47514;DHT22;33951;51.988;5.910;2023-08-24T15:38:03;25.10;99.90
47514;DHT22;33951;51.988;5.910;2023-08-24T15:44:08;24.90;99.90
47514;DHT22;33951;51.988;5.910;2023-08-24T15:46:50;24.80;99.90
47514;DHT22;33951;51.988;5.910;2023-08-24T15:52:49;24.80;99.90
47514;DHT22;33951;51.988;5.910;2023-08-24T15:55:33;24.70;99.90
47514;DHT22;33951;51.988;5.910;2023-08-24T15:58:40;24.70;99.90
47514;DHT22;33951;51.988;5.910;2023-08-24T16:01:38;24.70;99.90
47514;DHT22;33951;51.988;5.910;2023-08-24T16:04:17;24.70;99.90
47514;DHT22;33951;51.988;5.910;2023-08-24T16:10:00;24.60;99.90
47514;DHT22;33951;51.988;5.910;2023-08-24T16:15:50;24.80;99.90
47514;DHT22;33951;51.988;5.910;2023-08-24T16:18:46;25.00;99.90
47514;DHT22;33951;51.988;5.910;2023-08-24T16:24:37;25.20;99.90
47514;DHT22;33951;51.988;5.910;2023-08-24T16:27:03;25.20;99.90
47514;DHT22;33951;51.988;5.910;2023-08-24T16:29:29;25.10;99.90
47514;DHT22;33951;51.988;5.910;2023-08-24T16:31:55;25.10;99.90
47514;DHT22;33951;51.988;5.910;2023-08-24T16:34:20;25.10;99.90
47514;DHT22;33951;51.988;5.910;2023-08-24T16:36:47;24.90;99.90
47514;DHT22;33951;51.988;5.910;2023-08-24T16:39:13;24.70;99.90
47514;DHT22;33951;51.988;5.910;2023-08-24T16:41:41;24.70;99.90
47514;DHT22;33951;51.988;5.910;2023-08-24T16:44:07;24.70;99.90
47514;DHT22;33951;51.988;5.910;2023-08-24T16:46:32;24.70;99.90
47514;DHT22;33951;51.988;5.910;2023-08-24T16:48:58;24.70;99.90
47514;DHT22;33951;51.988;5.910;2023-08-24T16:51:55;24.60;99.90
47514;DHT22;33951;51.988;5.910;2023-08-24T17:25:25;24.70;99.90
47514;DHT22;33951;51.988;5.910;2023-08-24T17:28:08;24.80;99.90
47514;DHT22;33951;51.988;5.910;2023-08-24T17:30:34;24.70;99.90
47514;DHT22;33951;51.988;5.910;2023-08-24T17:33:00;24.70;99.90
47514;DHT22;33951;51.988;5.910;2023-08-24T17:35:29;24.70;99.90
47514;DHT22;33951;51.988;5.910;2023-08-24T17:37:58;24.70;99.90
47514;DHT22;33951;51.988;5.910;2023-08-24T17:40:24;24.50;99.90
47514;DHT22;33951;51.988;5.910;2023-08-24T17:42:52;24.40;99.90
47514;DHT22;33951;51.988;5.910;2023-08-24T17:45:20;24.50;99.90
47514;DHT22;33951;51.988;5.910;2023-08-24T17:47:49;24.60;99.90
47514;DHT22;33951;51.988;5.910;2023-08-24T17:50:16;24.70;99.90
47514;DHT22;33951;51.988;5.910;2023-08-24T17:52:41;24.60;99.90
47514;DHT22;33951;51.988;5.910;2023-08-24T17:55:07;24.50;99.90
47514;DHT22;33951;51.988;5.910;2023-08-24T17:57:34;24.30;99.90
47514;DHT22;33951;51.988;5.910;2023-08-24T18:00:03;24.30;99.90
47514;DHT22;33951;51.988;5.910;2023-08-24T18:02:38;24.40;99.90
47514;DHT22;33951;51.988;5.910;2023-08-24T18:05:05;24.40;99.90
47514;DHT22;33951;51.988;5.910;2023-08-24T18:07:31;24.40;99.90
47514;DHT22;33951;51.988;5.910;2023-08-24T18:09:57;24.40;99.90
47514;DHT22;33951;51.988;5.910;2023-08-24T18:12:29;24.40;99.90
47514;DHT22;33951;51.988;5.910;2023-08-24T18:14:57;24.40;99.90
47514;DHT22;33951;51.988;5.910;2023-08-24T18:17:40;24.60;99.90
47514;DHT22;33951;51.988;5.910;2023-08-24T18:20:09;24.70;99.90
47514;DHT22;33951;51.988;5.910;2023-08-24T18:22:38;24.60;99.90
47514;DHT22;33951;51.988;5.910;2023-08-24T18:25:06;24.40;99.90
47514;DHT22;33951;51.988;5.910;2023-08-24T18:27:32;24.30;99.90
47514;DHT22;33951;51.988;5.910;2023-08-24T18:30:00;24.30;99.90
47514;DHT22;33951;51.988;5.910;2023-08-24T18:32:29;24.20;99.90
47514;DHT22;33951;51.988;5.910;2023-08-24T18:34:57;24.30;99.90
47514;DHT22;33951;51.988;5.910;2023-08-24T18:37:29;24.40;99.90
47514;DHT22;33951;51.988;5.910;2023-08-24T18:39:54;24.30;99.90
47514;DHT22;33951;51.988;5.910;2023-08-24T18:42:23;24.20;99.90
47514;DHT22;33951;51.988;5.910;2023-08-24T18:44:51;24.10;99.90
47514;DHT22;33951;51.988;5.910;2023-08-24T18:47:16;23.90;99.90
47514;DHT22;33951;51.988;5.910;2023-08-24T18:49:48;24.00;99.90
47514;DHT22;33951;51.988;5.910;2023-08-24T18:52:13;24.10;99.90
47514;DHT22;33951;51.988;5.910;2023-08-24T18:54:47;24.30;99.90
47514;DHT22;33951;51.988;5.910;2023-08-24T18:57:12;24.20;99.90
47514;DHT22;33951;51.988;5.910;2023-08-24T18:59:44;24.00;99.90
47514;DHT22;33951;51.988;5.910;2023-08-24T19:02:17;23.80;99.90
47514;DHT22;33951;51.988;5.910;2023-08-24T19:04:44;23.70;99.90
47514;DHT22;33951;51.988;5.910;2023-08-24T19:07:11;23.70;99.90
47514;DHT22;33951;51.988;5.910;2023-08-24T19:09:50;23.70;99.90
47514;DHT22;33951;51.988;5.910;2023-08-24T19:12:18;23.70;99.90
47514;DHT22;33951;51.988;5.910;2023-08-24T19:14:44;23.90;99.90
47514;DHT22;33951;51.988;5.910;2023-08-24T19:17:15;24.10;99.90
47514;DHT22;33951;51.988;5.910;2023-08-24T19:19:43;23.90;99.90
47514;DHT22;33951;51.988;5.910;2023-08-24T19:22:09;23.90;99.90
47514;DHT22;33951;51.988;5.910;2023-08-24T19:24:35;24.00;99.90
47514;DHT22;33951;51.988;5.910;2023-08-24T19:27:00;23.70;99.90
47514;DHT22;33951;51.988;5.910;2023-08-24T19:29:26;23.40;99.90
47514;DHT22;33951;51.988;5.910;2023-08-24T19:32:03;23.30;99.90
47514;DHT22;33951;51.988;5.910;2023-08-24T19:34:35;23.20;99.90
47514;DHT22;33951;51.988;5.910;2023-08-24T19:37:01;23.10;99.90
47514;DHT22;33951;51.988;5.910;2023-08-24T19:39:26;23.00;99.90
47514;DHT22;33951;51.988;5.910;2023-08-24T19:41:52;23.00;99.90
47514;DHT22;33951;51.988;5.910;2023-08-24T19:48:11;23.10;99.90
47514;DHT22;33951;51.988;5.910;2023-08-24T19:54:20;23.50;99.90
47514;DHT22;33951;51.988;5.910;2023-08-24T19:57:14;23.50;99.90
47514;DHT22;33951;51.988;5.910;2023-08-24T20:00:18;23.40;99.90
47514;DHT22;33951;51.988;5.910;2023-08-24T20:03:28;23.30;99.90
47514;DHT22;33951;51.988;5.910;2023-08-24T20:16:26;23.30;99.90
47514;DHT22;33951;51.988;5.910;2023-08-24T20:29:34;23.40;99.90
47514;DHT22;33951;51.988;5.910;2023-08-24T20:58:32;22.80;99.90
47514;DHT22;33951;51.988;5.910;2023-08-24T21:55:57;21.70;99.90
47514;DHT22;33951;51.988;5.910;2023-08-24T21:58:10;21.50;99.90
47514;DHT22;33951;51.988;5.910;2023-08-24T22:01:32;21.20;99.90
47514;DHT22;33951;51.988;5.910;2023-08-24T22:04:21;21.20;99.90
47514;DHT22;33951;51.988;5.910;2023-08-24T22:06:50;21.20;99.90
47514;DHT22;33951;51.988;5.910;2023-08-24T22:12:58;21.40;99.90
47514;DHT22;33951;51.988;5.910;2023-08-24T22:15:38;21.50;99.90
47514;DHT22;33951;51.988;5.910;2023-08-24T22:18:44;21.70;99.90
47514;DHT22;33951;51.988;5.910;2023-08-24T22:21:31;21.80;99.90
47514;DHT22;33951;51.988;5.910;2023-08-24T22:24:27;21.60;99.90
47514;DHT22;33951;51.988;5.910;2023-08-24T22:27:31;21.50;99.90
47514;DHT22;33951;51.988;5.910;2023-08-24T22:30:16;21.50;99.90
47514;DHT22;33951;51.988;5.910;2023-08-24T22:32:52;21.40;99.90
47514;DHT22;33951;51.988;5.910;2023-08-24T22:35:18;21.30;99.90
47514;DHT22;33951;51.988;5.910;2023-08-24T22:37:59;21.20;99.90
47514;DHT22;33951;51.988;5.910;2023-08-24T22:40:39;21.20;99.90
47514;DHT22;33951;51.988;5.910;2023-08-24T22:43:09;21.20;99.90
47514;DHT22;33951;51.988;5.910;2023-08-24T22:48:45;21.20;99.90
47514;DHT22;33951;51.988;5.910;2023-08-24T22:51:44;21.20;99.90
47514;DHT22;33951;51.988;5.910;2023-08-24T22:55:08;21.00;99.90
47514;DHT22;33951;51.988;5.910;2023-08-24T23:01:54;21.10;99.90
47514;DHT22;33951;51.988;5.910;2023-08-24T23:04:38;21.10;99.90
47514;DHT22;33951;51.988;5.910;2023-08-24T23:11:41;20.90;99.90
47514;DHT22;33951;51.988;5.910;2023-08-24T23:14:43;20.90;99.90
47514;DHT22;33951;51.988;5.910;2023-08-24T23:24:54;21.00;99.90
47514;DHT22;33951;51.988;5.910;2023-08-24T23:32:07;20.80;99.90
47514;DHT22;33951;51.988;5.910;2023-08-24T23:38:04;20.60;99.90
47514;DHT22;33951;51.988;5.910;2023-08-24T23:54:05;20.80;99.90
47514;DHT22;33951;51.988;5.910;2023-08-24T23:56:51;21.10;99.90
